Time;durP1;ratioP1;P1;durP2;ratioP2;P2;SDS_P1;SDS_P2;PMS_P1;PMS_P2;Temp;Humidity;BMP_temperature;BMP_pressure;BME280_temperature;BME280_humidity;BME280_pressure;Samples;Min_cycle;Max_cycle;Signal;HPM_P1;HPM_P2
2021/10/09 00:00:38;;;;;;;8.30;5.40;;;;;;;0.99;66.72;98441.54;115834;1184;59554;-66
2021/10/09 00:03:09;;;;;;;17.70;9.50;;;;;;;0.96;68.06;98436.44;116117;1182;59548;-62
2021/10/09 00:05:39;;;;;;;10.90;8.00;;;;;;;0.91;69.53;98437.04;116016;1180;70591;-64
2021/10/09 00:08:14;;;;;;;13.90;8.70;;;;;;;0.86;69.56;98433.36;116094;1184;68441;-65
2021/10/09 00:10:45;;;;;;;14.10;6.60;;;;;;;0.82;68.66;98434.28;116041;1182;68584;-62
2021/10/09 00:13:15;;;;;;;7.10;4.90;;;;;;;0.83;67.76;98437.02;116056;1183;59577;-64
2021/10/09 00:15:45;;;;;;;19.30;10.20;;;;;;;0.81;67.80;98435.84;116013;1184;59589;-65
2021/10/09 00:18:15;;;;;;;9.20;5.40;;;;;;;0.78;69.93;98435.71;115929;1184;70455;-66
2021/10/09 00:20:44;;;;;;;15.70;9.50;;;;;;;0.75;69.13;98435.95;115813;1184;67779;-66
2021/10/09 00:23:14;;;;;;;8.20;5.20;;;;;;;0.72;69.56;98437.55;115901;1184;69317;-62
2021/10/09 00:25:45;;;;;;;10.90;7.40;;;;;;;0.71;67.34;98430.70;115997;1183;59515;-63
2021/10/09 00:28:16;;;;;;;10.90;6.80;;;;;;;0.69;67.42;98424.73;115911;1182;59507;-64
2021/10/09 00:30:46;;;;;;;13.70;10.50;;;;;;;0.67;68.41;98427.34;116100;1183;71455;-63
2021/10/09 00:33:17;;;;;;;10.70;6.70;;;;;;;0.64;68.96;98422.23;116072;1182;67507;-63
2021/10/09 00:35:47;;;;;;;10.60;5.80;;;;;;;0.64;67.01;98425.49;115845;1183;68364;-66
2021/10/09 00:38:16;;;;;;;11.10;7.40;;;;;;;0.64;67.17;98421.72;115982;1183;59539;-66
2021/10/09 00:40:47;;;;;;;9.00;5.30;;;;;;;0.63;67.16;98422.27;115898;1182;59587;-63
2021/10/09 00:43:18;;;;;;;14.20;9.60;;;;;;;0.63;67.21;98419.84;116039;1182;71653;-67
2021/10/09 00:45:58;;;;;;;16.50;10.60;;;;;;;0.62;69.89;98420.73;116048;1183;67595;-67
2021/10/09 00:48:28;;;;;;;16.80;10.30;;;;;;;0.60;71.58;98418.71;115951;1184;68084;-66
2021/10/09 00:50:57;;;;;;;9.60;6.40;;;;;;;0.57;70.74;98419.27;116092;1182;59539;-67
2021/10/09 00:53:30;;;;;;;17.20;11.30;;;;;;;0.56;69.35;98414.48;115854;1184;59550;-62
2021/10/09 00:56:01;;;;;;;9.00;6.10;;;;;;;0.55;70.22;98407.47;116046;1184;71498;-64
2021/10/09 00:58:31;;;;;;;6.80;4.40;;;;;;;0.54;68.67;98410.40;115846;1182;67556;-67
2021/10/09 01:01:01;;;;;;;14.00;8.50;;;;;;;0.53;69.84;98408.70;116054;1183;69267;-62
2021/10/09 01:03:31;;;;;;;10.20;7.50;;;;;;;0.50;70.87;98402.91;115961;1184;59558;-62
2021/10/09 01:06:02;;;;;;;19.10;11.60;;;;;;;0.48;70.80;98403.46;115887;1184;59541;-62
2021/10/09 01:08:32;;;;;;;9.20;6.50;;;;;;;0.45;71.85;98399.40;116109;1183;71369;-63
2021/10/09 01:11:02;;;;;;;12.60;7.90;;;;;;;0.44;70.86;98405.42;115972;1184;68272;-63
2021/10/09 01:13:32;;;;;;;10.90;6.30;;;;;;;0.41;71.22;98402.72;115862;1184;68316;-63
2021/10/09 01:16:03;;;;;;;17.10;10.30;;;;;;;0.40;71.47;98404.11;116032;1184;59627;-63
2021/10/09 01:18:35;;;;;;;12.30;7.60;;;;;;;0.35;72.40;98401.28;116037;1184;59538;-62
2021/10/09 01:21:05;;;;;;;11.20;7.60;;;;;;;0.33;71.99;98399.09;115991;1184;71422;-64
2021/10/09 01:23:40;;;;;;;8.90;5.80;;;;;;;0.30;71.76;98393.98;115912;1184;68529;-65
2021/10/09 01:26:11;;;;;;;10.30;7.10;;;;;;;0.29;70.97;98391.60;115841;1184;69265;-64
2021/10/09 01:28:46;;;;;;;9.30;5.60;;;;;;;0.28;71.27;98394.36;115977;1184;59573;-62
2021/10/09 01:31:16;;;;;;;8.00;5.70;;;;;;;0.26;70.72;98388.73;115814;1184;59569;-67
2021/10/09 01:33:46;;;;;;;6.80;3.80;;;;;;;0.25;70.63;98388.41;115860;1184;71389;-68
2021/10/09 01:36:28;;;;;;;8.70;5.40;;;;;;;0.25;69.13;98392.19;115912;1184;66526;-66
2021/10/09 01:38:59;;;;;;;13.20;5.90;;;;;;;0.24;68.81;98388.59;115818;1184;68489;-67
2021/10/09 01:41:50;;;;;;;12.10;6.60;;;;;;;0.24;70.76;98382.77;115866;1184;60294;-63
2021/10/09 01:44:31;;;;;;;14.00;9.00;;;;;;;0.24;70.94;98387.05;115876;1184;59557;-64
2021/10/09 01:47:03;;;;;;;10.90;7.20;;;;;;;0.27;69.47;98383.73;115870;1184;71439;-66
2021/10/09 01:49:38;;;;;;;10.60;6.30;;;;;;;0.26;69.85;98384.61;115854;1184;67676;-64
2021/10/09 01:52:11;;;;;;;12.60;9.30;;;;;;;0.26;72.84;98385.48;116060;1184;69258;-66
2021/10/09 01:54:41;;;;;;;12.80;8.10;;;;;;;0.25;72.30;98383.10;115887;1184;59548;-64
2021/10/09 01:57:11;;;;;;;13.50;8.40;;;;;;;0.24;71.42;98381.06;115963;1184;59557;-63
2021/10/09 01:59:42;;;;;;;11.80;7.80;;;;;;;0.23;72.87;98377.11;115809;1184;70599;-66
2021/10/09 02:02:24;;;;;;;6.30;4.00;;;;;;;0.23;72.34;98382.79;115952;1184;67651;-63
2021/10/09 02:04:54;;;;;;;10.50;7.10;;;;;;;0.23;70.50;98383.64;115924;1184;68565;-63
2021/10/09 02:07:25;;;;;;;11.60;6.70;;;;;;;0.22;72.22;98383.83;115801;1184;59567;-62
2021/10/09 02:09:59;;;;;;;8.40;5.40;;;;;;;0.20;71.33;98383.02;115916;1184;59537;-66
2021/10/09 02:12:31;;;;;;;19.90;10.60;;;;;;;0.20;70.21;98381.80;115815;1184;70585;-64
2021/10/09 02:15:09;;;;;;;10.70;5.20;;;;;;;0.20;73.04;98382.14;115854;1184;67907;-65
2021/10/09 02:25:49;;;;;;;13.50;7.90;;;;;;;0.20;70.97;98380.08;115901;1184;70674;-63
2021/10/09 02:28:22;;;;;;;10.00;5.80;;;;;;;0.20;70.73;98380.10;115900;1184;67745;-62
2021/10/09 02:30:54;;;;;;;10.60;7.90;;;;;;;0.20;70.30;98384.04;115928;1183;68606;-63
2021/10/09 02:33:26;;;;;;;10.80;6.40;;;;;;;0.18;70.43;98385.24;115945;1184;60075;-64
2021/10/09 02:35:56;;;;;;;8.90;6.50;;;;;;;0.18;70.04;98388.17;115865;1184;59653;-64
2021/10/09 02:38:27;;;;;;;20.60;10.60;;;;;;;0.17;70.83;98390.59;115917;1184;71425;-62
2021/10/09 02:40:57;;;;;;;9.10;5.50;;;;;;;0.14;72.12;98394.06;115798;1184;68471;-63
2021/10/09 02:43:27;;;;;;;8.40;4.20;;;;;;;0.13;70.04;98392.70;115903;1184;68273;-66
2021/10/09 02:45:58;;;;;;;16.80;8.20;;;;;;;0.11;71.64;98401.31;115901;1183;59562;-63
2021/10/09 02:48:32;;;;;;;10.50;7.30;;;;;;;0.08;73.28;98398.80;115844;1184;59566;-62
2021/10/09 02:51:02;;;;;;;12.70;8.00;;;;;;;0.05;73.98;98401.58;115830;1184;71351;-62
2021/10/09 02:53:33;;;;;;;10.30;6.30;;;;;;;0.05;71.79;98400.38;116079;1184;67447;-62
2021/10/09 02:56:03;;;;;;;11.10;7.00;;;;;;;0.03;71.72;98399.55;115889;1184;69409;-63
2021/10/09 02:58:35;;;;;;;8.70;5.00;;;;;;;0.01;71.16;98401.30;115846;1184;59535;-63
2021/10/09 03:01:06;;;;;;;12.10;6.40;;;;;;;-0.04;72.46;98400.52;115748;1187;59525;-62
2021/10/09 03:03:37;;;;;;;7.40;4.90;;;;;;;-0.06;71.71;98400.52;115871;1176;71155;-65
2021/10/09 03:06:07;;;;;;;6.00;3.80;;;;;;;-0.07;71.43;98398.84;115818;1184;68695;-65
2021/10/09 03:08:37;;;;;;;;;;;;;;;-0.10;70.78;98399.05;115926;1184;69236;-63
2021/10/09 03:11:07;;;;;;;5.60;3.80;;;;;;;-0.12;71.28;98396.85;115863;1184;59612;-64
2021/10/09 03:13:37;;;;;;;16.10;7.50;;;;;;;-0.14;70.72;98395.86;115860;1182;59543;-64
2021/10/09 03:16:07;;;;;;;9.10;6.00;;;;;;;-0.17;72.05;98399.16;115908;1183;71626;-63
2021/10/09 03:18:38;;;;;;;8.20;5.60;;;;;;;-0.20;71.71;98402.28;115955;1184;67310;-63
2021/10/09 03:21:09;;;;;;;6.40;5.10;;;;;;;-0.23;73.22;98401.98;115895;1184;69284;-62
2021/10/09 03:23:39;;;;;;;6.50;3.90;;;;;;;-0.25;72.18;98403.71;115769;1184;59569;-64
2021/10/09 03:26:08;;;;;;;11.00;6.50;;;;;;;-0.26;71.30;98399.97;116098;1184;59549;-67
2021/10/09 03:28:39;;;;;;;7.70;4.30;;;;;;;-0.30;72.59;98400.18;116041;1183;70826;-63
2021/10/09 03:31:10;;;;;;;11.60;7.20;;;;;;;-0.31;73.46;98400.04;115956;1184;67877;-64
2021/10/09 03:33:40;;;;;;;8.70;6.20;;;;;;;-0.33;73.30;98401.42;115924;1184;68386;-63
2021/10/09 03:36:09;;;;;;;9.50;5.80;;;;;;;-0.34;73.50;98403.14;115887;1184;59591;-64
2021/10/09 03:38:39;;;;;;;8.90;6.30;;;;;;;-0.36;74.12;98402.15;115864;1184;59547;-64
2021/10/09 03:41:11;;;;;;;6.90;4.20;;;;;;;-0.37;73.33;98401.48;116099;1183;70581;-63
2021/10/09 03:43:43;;;;;;;7.00;4.40;;;;;;;-0.37;72.23;98404.06;115981;1184;68428;-63
2021/10/09 03:46:27;;;;;;;11.10;6.40;;;;;;;-0.37;72.68;98404.91;115862;1184;68570;-67
2021/10/09 03:54:43;;;;;;;13.80;8.40;;;;;;;-0.47;76.53;98406.41;115984;1184;70736;-64
2021/10/09 03:57:12;;;;;;;7.90;4.50;;;;;;;-0.49;74.95;98407.65;116052;1184;67711;-64
2021/10/09 03:59:42;;;;;;;8.50;5.90;;;;;;;-0.51;72.82;98402.87;115905;1184;69575;-64
2021/10/09 04:02:12;;;;;;;7.40;4.50;;;;;;;-0.51;71.93;98402.52;115906;1184;59646;-65
2021/10/09 04:04:41;;;;;;;10.30;7.00;;;;;;;-0.52;72.38;98406.64;115907;1184;59612;-62
2021/10/09 04:07:11;;;;;;;10.40;6.90;;;;;;;-0.55;72.03;98404.98;116044;1182;71206;-63
2021/10/09 04:09:41;;;;;;;9.20;5.30;;;;;;;-0.57;73.36;98404.46;116039;1183;68526;-65
2021/10/09 04:12:11;;;;;;;7.70;5.30;;;;;;;-0.59;73.29;98404.68;116072;1182;70521;-65
2021/10/09 04:14:41;;;;;;;8.40;5.80;;;;;;;-0.60;73.00;98407.42;115959;1184;59976;-62
2021/10/09 04:17:12;;;;;;;4.60;3.00;;;;;;;-0.62;73.66;98407.10;115896;1184;59536;-62
2021/10/09 04:19:41;;;;;;;10.60;7.10;;;;;;;-0.63;73.72;98409.70;115832;1182;70475;-64
2021/10/09 04:22:11;;;;;;;7.50;5.00;;;;;;;-0.65;73.70;98410.56;116065;1183;68371;-68
2021/10/09 04:24:41;;;;;;;;;;;;;;;-0.66;74.23;98416.41;115873;1184;69301;-63
2021/10/09 04:27:10;;;;;;;7.20;4.80;;;;;;;-0.67;73.08;98415.04;116054;1176;59564;-66
2021/10/09 04:29:40;;;;;;;7.90;5.40;;;;;;;-0.67;72.10;98415.56;115907;1184;59541;-65
2021/10/09 04:32:10;;;;;;;15.80;9.50;;;;;;;-0.66;71.43;98420.68;116011;1184;71183;-65
2021/10/09 04:34:41;;;;;;;9.10;5.30;;;;;;;-0.68;73.24;98426.02;116064;1184;68333;-64
2021/10/09 04:37:12;;;;;;;;;;;;;;;-0.69;72.55;98424.66;115959;1184;68595;-63
2021/10/09 04:39:42;;;;;;;11.40;7.10;;;;;;;-0.70;73.38;98426.89;115917;1184;59611;-66
2021/10/09 04:42:12;;;;;;;8.40;5.70;;;;;;;-0.71;73.40;98429.30;115968;1176;59474;-65
2021/10/09 04:44:41;;;;;;;10.80;5.90;;;;;;;-0.69;71.88;98426.38;115950;1184;71460;-65
2021/10/09 04:47:11;;;;;;;11.80;7.90;;;;;;;-0.68;72.98;98424.83;115944;1184;68568;-62
2021/10/09 04:49:41;;;;;;;6.70;5.50;;;;;;;-0.67;73.21;98429.94;115946;1184;69212;-62
2021/10/09 04:52:11;;;;;;;6.80;5.00;;;;;;;-0.64;72.95;98429.73;116022;1183;59596;-65
2021/10/09 04:54:41;;;;;;;10.10;6.00;;;;;;;-0.62;72.94;98431.07;116073;1182;60456;-64
2021/10/09 04:57:13;;;;;;;11.60;7.20;;;;;;;-0.57;71.37;98436.52;116044;1184;70632;-65
2021/10/09 04:59:43;;;;;;;11.90;7.60;;;;;;;-0.55;72.21;98435.27;115854;1184;68023;-65
2021/10/09 05:02:12;;;;;;;8.70;6.80;;;;;;;-0.50;72.45;98440.35;115874;1184;69343;-64
2021/10/09 05:04:42;;;;;;;11.40;6.50;;;;;;;-0.44;71.64;98439.43;116072;1183;59636;-62
2021/10/09 05:07:11;;;;;;;10.80;6.20;;;;;;;-0.38;72.85;98439.87;115950;1184;59513;-62
2021/10/09 05:09:42;;;;;;;6.30;4.30;;;;;;;-0.31;73.27;98434.96;115940;1183;72990;-65
2021/10/09 05:12:11;;;;;;;10.40;6.90;;;;;;;-0.23;73.31;98439.34;116027;1184;68766;-63
2021/10/09 05:14:41;;;;;;;14.10;8.10;;;;;;;-0.19;75.69;98433.63;115845;1184;69303;-66
2021/10/09 05:17:10;;;;;;;11.80;7.60;;;;;;;-0.16;76.20;98434.27;116046;1183;59554;-65
2021/10/09 05:19:41;;;;;;;6.20;4.60;;;;;;;-0.09;74.75;98438.80;115896;1184;59515;-65
2021/10/09 05:22:12;;;;;;;11.90;7.70;;;;;;;-0.01;74.29;98440.74;115911;1184;72059;-66
2021/10/09 05:24:41;;;;;;;11.90;8.90;;;;;;;0.07;74.32;98443.20;116106;1184;68442;-65
2021/10/09 05:27:11;;;;;;;25.90;17.00;;;;;;;0.15;73.64;98440.16;115979;1184;68504;-63
2021/10/09 05:29:40;;;;;;;15.20;10.00;;;;;;;0.25;72.78;98438.81;116066;1184;59566;-62
2021/10/09 05:32:10;;;;;;;32.30;19.40;;;;;;;0.34;72.22;98441.08;116034;1184;59523;-67
2021/10/09 05:34:40;;;;;;;25.40;15.30;;;;;;;0.43;73.28;98440.23;115899;1183;71385;-65
2021/10/09 05:37:10;;;;;;;28.80;19.40;;;;;;;0.53;72.62;98442.85;115951;1184;67669;-63
2021/10/09 05:39:39;;;;;;;23.60;17.50;;;;;;;0.63;73.23;98442.85;116124;1184;69252;-66
2021/10/09 05:42:09;;;;;;;34.40;22.30;;;;;;;0.74;72.36;98444.39;115939;1184;59549;-66
2021/10/09 05:44:38;;;;;;;39.10;25.90;;;;;;;0.85;73.96;98444.01;115964;1184;59594;-63
2021/10/09 05:47:08;;;;;;;41.40;25.40;;;;;;;0.94;74.07;98448.14;115791;1184;72488;-62
2021/10/09 05:49:39;;;;;;;26.10;15.70;;;;;;;1.07;73.80;98446.88;115884;1184;68261;-65
2021/10/09 05:52:15;;;;;;;16.60;10.60;;;;;;;1.26;72.55;98448.77;115903;1184;68670;-64
2021/10/09 05:55:08;;;;;;;27.00;18.80;;;;;;;1.51;72.16;98456.16;116010;1184;59540;-65
2021/10/09 05:57:45;;;;;;;35.00;24.00;;;;;;;1.80;72.32;98454.38;116006;1184;59545;-65
2021/10/09 06:42:20;;;;;;;13.70;10.20;;;;;;;5.36;59.55;98459.75;116089;1184;70423;-65
2021/10/09 06:45:17;;;;;;;16.70;10.00;;;;;;;5.81;58.31;98465.56;116068;1183;68357;-63
2021/10/09 07:01:47;;;;;;;13.80;8.40;;;;;;;8.37;48.57;98474.46;116120;1184;69265;-65
2021/10/09 07:04:17;;;;;;;;;;;;;;;8.48;48.09;98472.75;116090;1184;59532;-68
2021/10/09 07:06:48;;;;;;;12.50;7.30;;;;;;;9.13;47.76;98470.28;116061;1184;59503;-69
2021/10/09 07:09:34;;;;;;;12.60;8.30;;;;;;;9.63;44.84;98475.39;116199;1182;70713;-66
2021/10/09 07:12:13;;;;;;;12.10;8.60;;;;;;;9.64;45.09;98479.67;116284;1182;67730;-69
2021/10/09 07:14:43;;;;;;;13.10;8.30;;;;;;;9.52;45.96;98475.58;116163;1183;68607;-64
2021/10/09 07:17:13;;;;;;;12.70;7.90;;;;;;;9.60;45.15;98475.71;116073;1184;59561;-68
2021/10/09 07:19:42;;;;;;;12.60;8.50;;;;;;;9.58;44.99;98472.64;116080;1184;59548;-68
2021/10/09 07:22:12;;;;;;;12.70;8.70;;;;;;;9.54;46.10;98476.20;116186;1182;71268;-62
2021/10/09 07:25:03;;;;;;;13.40;9.10;;;;;;;9.17;46.85;98470.58;116070;1182;67671;-62
2021/10/09 07:27:34;;;;;;;13.90;10.40;;;;;;;9.20;47.39;98470.42;116262;1182;68477;-67
2021/10/09 07:30:04;;;;;;;15.10;10.50;;;;;;;8.80;48.00;98476.95;116113;1182;59577;-66
2021/10/09 07:32:34;;;;;;;14.80;10.30;;;;;;;8.55;48.88;98478.67;116106;1182;59545;-66
2021/10/09 07:35:05;;;;;;;15.40;8.50;;;;;;;8.40;49.74;98481.09;115983;1184;70536;-63
2021/10/09 07:37:34;;;;;;;14.30;11.60;;;;;;;8.55;49.76;98483.35;116220;1184;68831;-64
2021/10/09 07:40:05;;;;;;;21.90;13.10;;;;;;;8.44;50.02;98483.20;116005;1184;68592;-66
2021/10/09 07:42:35;;;;;;;17.30;13.10;;;;;;;8.29;50.96;98483.15;116132;1182;59566;-67
2021/10/09 07:45:05;;;;;;;15.40;11.50;;;;;;;8.28;51.54;98486.34;115980;1184;59592;-65
2021/10/09 07:47:35;;;;;;;19.00;13.90;;;;;;;8.41;51.53;98486.30;116092;1183;70846;-70
2021/10/09 07:50:05;;;;;;;16.60;13.20;;;;;;;8.48;50.95;98484.91;116027;1184;67941;-67
2021/10/09 07:52:35;;;;;;;20.80;13.30;;;;;;;8.64;51.21;98483.45;116014;1182;68497;-68
2021/10/09 07:55:06;;;;;;;18.40;12.60;;;;;;;8.98;50.82;98481.61;116111;1183;59564;-67
2021/10/09 07:57:35;;;;;;;;;;;;;;;9.36;49.94;98481.27;116038;1184;59539;-67
2021/10/09 08:00:05;;;;;;;17.50;12.30;;;;;;;9.67;48.97;98480.52;115986;1184;70628;-67
2021/10/09 08:02:51;;;;;;;14.60;10.60;;;;;;;9.92;48.88;98479.91;116118;1183;67698;-66
2021/10/09 08:05:23;;;;;;;15.10;10.50;;;;;;;10.42;48.74;98482.45;116082;1184;67797;-63
2021/10/09 08:07:52;;;;;;;12.50;9.20;;;;;;;10.85;46.84;98481.50;116059;1184;59551;-67
2021/10/09 08:10:25;;;;;;;16.70;11.60;;;;;;;11.18;46.12;98481.70;116088;1181;59560;-64
2021/10/09 08:12:54;;;;;;;18.40;11.80;;;;;;;11.50;44.94;98485.01;116095;1183;71375;-66
2021/10/09 08:15:24;;;;;;;14.10;10.20;;;;;;;11.67;43.93;98482.08;116039;1183;68023;-65
2021/10/09 08:17:53;;;;;;;11.80;8.90;;;;;;;12.01;43.07;98483.90;116088;1184;68586;-63
2021/10/09 08:20:23;;;;;;;14.30;11.00;;;;;;;12.44;42.75;98485.55;116088;1183;59519;-64
2021/10/09 08:22:59;;;;;;;11.90;8.80;;;;;;;12.84;42.20;98477.01;116064;1184;59584;-68
2021/10/09 08:38:51;;;;;;;7.90;4.90;;;;;;;16.65;35.67;98476.36;116097;1183;71463;-63
2021/10/09 08:41:21;;;;;;;7.60;5.30;;;;;;;16.92;35.02;98471.23;116076;1183;67417;-64
2021/10/09 08:43:53;;;;;;;5.10;4.30;;;;;;;16.99;33.46;98471.69;116074;1183;68395;-65
2021/10/09 08:46:22;;;;;;;7.30;5.00;;;;;;;17.25;34.19;98469.48;116032;1184;59538;-65
2021/10/09 08:48:53;;;;;;;7.60;5.60;;;;;;;17.58;34.06;98470.65;115932;1185;59580;-68
2021/10/09 08:51:25;;;;;;;6.20;4.50;;;;;;;17.85;32.51;98471.23;115975;1185;70796;-63
2021/10/09 08:54:04;;;;;;;11.70;6.90;;;;;;;18.24;31.81;98467.45;116149;1182;68466;-63
2021/10/09 08:56:47;;;;;;;8.10;5.60;;;;;;;18.65;31.09;98467.16;116050;1183;69109;-67
2021/10/09 08:59:29;;;;;;;7.20;4.90;;;;;;;19.05;30.52;98463.39;116210;1183;59612;-67
2021/10/09 09:02:32;;;;;;;7.70;4.90;;;;;;;19.39;31.24;98461.00;116231;1182;59598;-64
2021/10/09 09:05:39;;;;;;;7.90;4.30;;;;;;;19.76;30.01;98464.84;116135;1182;72213;-64
2021/10/09 09:39:09;;;;;;;6.30;4.60;;;;;;;24.58;22.93;98455.52;116121;1183;69303;-65
2021/10/09 09:41:47;;;;;;;10.50;4.70;;;;;;;25.02;21.81;98450.88;116104;1183;59600;-65
2021/10/09 09:44:21;;;;;;;7.60;5.00;;;;;;;25.46;21.59;98452.59;115943;1184;59538;-66
2021/10/09 09:47:31;;;;;;;7.30;4.30;;;;;;;25.08;19.71;98455.67;116050;1183;70707;-64
2021/10/09 09:50:03;;;;;;;8.30;5.10;;;;;;;24.69;20.30;98456.69;115727;1186;67693;-64
2021/10/09 09:52:36;;;;;;;10.60;5.40;;;;;;;24.04;19.67;98451.39;115718;1186;69337;-64
2021/10/09 09:55:10;;;;;;;8.30;5.50;;;;;;;23.03;20.97;98445.05;115705;1187;59746;-66
2021/10/09 09:57:40;;;;;;;9.40;5.40;;;;;;;22.51;21.56;98445.81;115895;1186;59622;-66
2021/10/09 10:00:13;;;;;;;6.80;4.80;;;;;;;21.80;22.23;98443.74;115786;1186;71693;-64
2021/10/09 10:02:50;;;;;;;10.80;6.20;;;;;;;21.84;21.69;98440.16;115735;1187;68390;-64
2021/10/09 10:05:24;;;;;;;9.50;5.60;;;;;;;21.22;22.58;98436.10;115657;1187;68791;-68
2021/10/09 10:07:55;;;;;;;6.80;4.70;;;;;;;21.21;22.63;98439.13;115839;1187;59590;-67
2021/10/09 10:10:24;;;;;;;8.00;5.10;;;;;;;21.51;21.67;98433.98;115652;1186;59673;-67
2021/10/09 10:12:57;;;;;;;15.20;9.50;;;;;;;20.88;22.48;98436.66;115673;1179;71517;-69
2021/10/09 10:15:28;;;;;;;10.60;6.40;;;;;;;20.15;24.15;98437.10;115719;1187;66795;-71
2021/10/09 10:17:58;;;;;;;9.40;6.60;;;;;;;19.82;24.47;98437.68;115707;1187;69433;-68
2021/10/09 10:20:52;;;;;;;10.40;5.60;;;;;;;20.24;24.79;98436.54;115684;1187;59676;-66
2021/10/09 10:23:42;;;;;;;8.50;5.90;;;;;;;21.38;23.66;98425.81;115715;1177;59634;-68
2021/10/09 10:26:21;;;;;;;6.50;4.90;;;;;;;22.59;22.01;98425.39;115919;1187;71429;-68
2021/10/09 10:28:53;;;;;;;7.70;5.00;;;;;;;23.73;21.51;98421.70;116163;1183;67694;-68
2021/10/09 10:31:23;;;;;;;13.20;9.40;;;;;;;24.28;20.41;98422.85;116236;1174;69147;-71
2021/10/09 10:34:23;;;;;;;12.10;8.20;;;;;;;23.95;19.90;98422.13;116308;1182;59554;-64
2021/10/09 10:36:52;;;;;;;7.80;5.60;;;;;;;23.87;20.08;98427.48;116153;1182;59562;-69
2021/10/09 10:39:36;;;;;;;;;;;;;;;23.88;19.60;98425.71;116254;1182;71533;-66
2021/10/09 10:42:09;;;;;;;9.50;6.10;;;;;;;23.50;20.09;98422.67;116274;1182;68368;-64
2021/10/09 10:48:04;;;;;;;6.20;4.70;;;;;;;22.33;21.59;98427.05;116265;1182;59565;-64
2021/10/09 10:56:13;;;;;;;8.30;5.60;;;;;;;22.59;20.55;98425.17;116299;1182;67954;-66
2021/10/09 10:58:42;;;;;;;9.40;5.40;;;;;;;23.21;21.19;98419.29;116125;1183;68694;-66
2021/10/09 11:01:23;;;;;;;7.60;5.10;;;;;;;23.88;19.96;98425.72;116325;1182;59561;-69
2021/10/09 11:03:55;;;;;;;10.20;6.10;;;;;;;23.74;20.49;98424.48;116197;1182;59515;-66
2021/10/09 11:06:27;;;;;;;9.80;6.10;;;;;;;23.16;20.20;98422.80;116113;1184;71236;-66
2021/10/09 11:08:58;;;;;;;7.10;4.80;;;;;;;21.58;21.36;98419.39;116118;1183;68549;-66
2021/10/09 11:11:36;;;;;;;8.20;5.20;;;;;;;21.00;21.98;98419.74;116250;1182;68496;-69
2021/10/09 11:14:06;;;;;;;8.80;4.60;;;;;;;20.95;22.23;98415.08;116295;1182;59523;-66
2021/10/09 11:16:35;;;;;;;7.50;4.70;;;;;;;20.91;23.46;98407.88;116234;1182;59638;-62
2021/10/09 11:19:04;;;;;;;7.50;5.40;;;;;;;20.72;23.76;98409.61;116248;1182;71211;-68
2021/10/09 11:21:52;;;;;;;9.00;5.40;;;;;;;20.54;22.73;98415.45;116140;1184;68273;-63
2021/10/09 11:24:48;;;;;;;7.80;5.50;;;;;;;19.78;23.66;98418.78;116102;1184;68519;-69
2021/10/09 11:27:19;;;;;;;8.10;5.30;;;;;;;19.31;25.34;98415.39;116023;1183;59574;-68
2021/10/09 11:30:09;;;;;;;12.50;8.30;;;;;;;18.94;25.24;98415.66;116241;1182;60477;-68
2021/10/09 11:32:41;;;;;;;11.10;6.90;;;;;;;18.39;26.19;98409.79;116110;1184;71517;-64
2021/10/09 11:35:12;;;;;;;8.70;5.60;;;;;;;18.05;26.37;98413.39;116185;1182;68729;-64
2021/10/09 11:37:47;;;;;;;7.00;5.90;;;;;;;16.96;27.70;98412.39;116183;1182;70019;-67
2021/10/09 11:40:34;;;;;;;9.50;5.60;;;;;;;16.66;28.02;98415.21;116227;1185;59538;-70
2021/10/09 11:43:32;;;;;;;8.50;5.60;;;;;;;16.36;28.84;98414.99;116271;1182;59561;-65
2021/10/09 11:46:23;;;;;;;7.70;5.20;;;;;;;16.24;28.59;98413.88;116130;1183;70593;-65
2021/10/09 11:58:23;;;;;;;7.30;5.20;;;;;;;16.13;29.11;98419.48;116271;1182;59511;-65
2021/10/09 12:00:53;;;;;;;9.60;6.50;;;;;;;15.93;29.03;98412.25;116043;1184;70464;-64
2021/10/09 12:03:26;;;;;;;7.80;4.70;;;;;;;15.73;29.63;98412.76;116314;1182;68399;-65
2021/10/09 12:05:59;;;;;;;9.50;6.40;;;;;;;15.67;30.04;98414.16;116241;1182;68761;-69
2021/10/09 12:08:30;;;;;;;9.10;5.50;;;;;;;15.59;30.54;98414.22;116122;1184;59529;-67
2021/10/09 12:11:29;;;;;;;10.60;5.30;;;;;;;15.08;30.73;98407.05;116285;1182;59542;-64
2021/10/09 12:14:01;;;;;;;32.70;16.40;;;;;;;15.00;30.90;98408.88;116067;1184;71521;-63
2021/10/09 12:16:39;;;;;;;10.40;6.70;;;;;;;15.02;31.08;98405.07;116020;1184;68402;-68
2021/10/09 12:19:24;;;;;;;13.80;8.70;;;;;;;14.92;31.11;98406.34;116276;1182;69264;-66
2021/10/09 12:21:53;;;;;;;18.70;12.70;;;;;;;14.90;31.44;98404.20;116025;1185;59572;-63
2021/10/09 12:24:25;;;;;;;16.30;11.40;;;;;;;14.89;31.16;98405.65;116156;1184;59573;-65
2021/10/09 12:27:12;;;;;;;9.60;6.50;;;;;;;14.85;31.48;98401.20;116068;1184;71945;-64
2021/10/09 12:30:00;;;;;;;28.10;17.00;;;;;;;14.85;31.50;98402.48;116023;1184;68387;-67
2021/10/09 12:32:38;;;;;;;10.30;7.20;;;;;;;14.74;31.37;98399.05;115907;1184;68349;-69
2021/10/09 12:35:26;;;;;;;12.60;8.50;;;;;;;14.62;32.10;98402.36;116158;1183;59590;-67
2021/10/09 12:38:00;;;;;;;13.10;6.70;;;;;;;14.52;32.19;98398.38;116105;1183;59639;-66
2021/10/09 12:40:39;;;;;;;10.40;7.10;;;;;;;14.63;32.01;98399.53;116201;1182;71419;-68
2021/10/09 12:43:13;;;;;;;10.30;5.60;;;;;;;14.76;31.74;98394.36;116116;1183;68336;-66
2021/10/09 12:45:43;;;;;;;9.30;5.60;;;;;;;14.86;31.76;98392.94;116137;1183;69297;-66
2021/10/09 12:48:13;;;;;;;12.70;6.60;;;;;;;14.95;31.56;98392.60;116224;1182;59564;-68
2021/10/09 12:50:43;;;;;;;10.10;6.60;;;;;;;14.91;31.88;98393.20;116191;1185;59549;-68
2021/10/09 12:53:12;;;;;;;11.10;6.50;;;;;;;14.92;31.27;98395.41;115907;1184;71575;-66
2021/10/09 12:55:42;;;;;;;9.70;6.60;;;;;;;14.89;31.58;98396.56;116212;1184;67393;-66
2021/10/09 12:58:11;;;;;;;8.70;6.20;;;;;;;14.79;31.77;98396.88;116218;1182;68633;-64
2021/10/09 13:00:40;;;;;;;11.40;7.60;;;;;;;14.75;32.04;98395.33;116053;1184;59558;-66
2021/10/09 13:03:09;;;;;;;8.90;6.60;;;;;;;14.57;32.37;98392.09;116086;1184;59532;-65
2021/10/09 13:05:39;;;;;;;7.90;6.20;;;;;;;14.52;32.14;98395.79;116100;1182;69752;-63
2021/10/09 13:08:08;;;;;;;11.30;6.40;;;;;;;14.30;32.44;98391.33;116141;1183;68497;-63
2021/10/09 13:10:40;;;;;;;11.10;6.50;;;;;;;14.26;32.33;98391.67;116180;1182;69372;-66
2021/10/09 13:13:10;;;;;;;10.40;6.30;;;;;;;14.21;32.93;98389.23;115984;1184;59634;-65
2021/10/09 13:15:40;;;;;;;12.50;8.30;;;;;;;14.16;33.21;98388.53;116105;1183;59541;-67
2021/10/09 13:18:09;;;;;;;9.90;6.60;;;;;;;14.15;33.45;98382.45;115961;1184;71405;-66
2021/10/09 13:20:38;;;;;;;12.00;7.00;;;;;;;14.25;33.15;98380.66;115989;1184;67458;-66
2021/10/09 13:23:08;;;;;;;8.50;5.90;;;;;;;14.32;33.14;98381.61;116054;1184;68055;-64
2021/10/09 13:25:40;;;;;;;9.00;5.90;;;;;;;14.44;32.59;98387.54;116226;1184;59573;-67
2021/10/09 13:28:10;;;;;;;10.30;7.20;;;;;;;14.58;32.53;98390.08;116182;1183;59545;-65
2021/10/09 13:30:39;;;;;;;10.10;6.00;;;;;;;14.79;31.81;98383.27;116072;1184;69750;-67
2021/10/09 13:33:08;;;;;;;11.20;7.70;;;;;;;15.06;31.61;98382.79;116110;1184;67440;-64
2021/10/09 13:35:37;;;;;;;11.10;6.40;;;;;;;15.07;31.89;98382.88;116061;1184;69252;-66
2021/10/09 13:38:09;;;;;;;9.40;6.50;;;;;;;15.10;31.86;98386.17;116104;1183;59552;-64
2021/10/09 13:40:38;;;;;;;12.40;7.10;;;;;;;15.16;32.23;98384.67;116202;1182;59559;-66
2021/10/09 13:43:13;;;;;;;10.20;6.80;;;;;;;15.37;31.67;98383.94;116099;1185;69807;-66
2021/10/09 13:45:44;;;;;;;6.50;4.90;;;;;;;15.65;31.11;98386.67;116297;1182;68928;-68
2021/10/09 13:48:13;;;;;;;10.00;5.50;;;;;;;15.75;30.75;98387.86;116115;1183;68471;-69
2021/10/09 13:50:52;;;;;;;12.30;7.20;;;;;;;15.70;31.02;98390.34;116023;1184;59565;-67
2021/10/09 13:53:22;;;;;;;11.90;7.40;;;;;;;15.43;30.74;98388.70;116154;1184;59513;-64
2021/10/09 13:55:51;;;;;;;10.40;7.10;;;;;;;15.28;30.87;98387.46;116138;1182;71444;-68
2021/10/09 13:58:20;;;;;;;8.00;5.90;;;;;;;15.05;31.70;98387.43;116189;1182;68221;-66
2021/10/09 14:00:50;;;;;;;9.70;6.20;;;;;;;15.00;31.52;98388.48;116088;1184;69447;-67
2021/10/09 14:03:20;;;;;;;9.70;5.80;;;;;;;14.89;31.39;98385.81;116225;1182;59569;-69